createdAt,value
2022-08-05T00:00:51.636Z,26.00
2022-08-05T00:03:54.167Z,25.94
2022-08-05T00:06:59.774Z,25.90
2022-08-05T00:10:02.375Z,25.91
2022-08-05T00:13:05.207Z,25.87
2022-08-05T00:16:09.509Z,25.83
2022-08-05T00:19:13.567Z,25.79
2022-08-05T00:22:17.772Z,25.75
2022-08-05T00:25:20.679Z,25.78
2022-08-05T00:28:29.755Z,25.78
2022-08-05T00:31:53.885Z,25.77
2022-08-05T00:35:06.330Z,25.78
2022-08-05T00:38:09.824Z,25.81
2022-08-05T00:41:12.334Z,25.83
2022-08-05T00:44:14.755Z,25.80
2022-08-05T00:47:17.278Z,25.80
2022-08-05T00:50:20.926Z,25.75
2022-08-05T00:54:01.375Z,25.73
2022-08-05T00:56:51.355Z,25.69
2022-08-05T00:59:54.435Z,25.63
2022-08-05T01:02:57.646Z,25.55
2022-08-05T01:06:05.435Z,25.49
2022-08-05T01:09:08.107Z,25.46
2022-08-05T01:12:18.516Z,25.45
2022-08-05T01:15:36.119Z,25.42
2022-08-05T01:18:42.662Z,25.38
2022-08-05T01:22:10.834Z,25.44
2022-08-05T01:25:41.124Z,25.42
2022-08-05T01:28:45.403Z,25.45
2022-08-05T01:31:49.779Z,25.40
2022-08-05T01:34:58.686Z,25.47
2022-08-05T01:38:03.115Z,25.47
2022-08-05T01:41:07.534Z,25.41
2022-08-05T01:44:11.411Z,25.36
2022-08-05T01:47:16.824Z,25.29
2022-08-05T01:50:29.422Z,25.33
2022-08-05T01:53:56.960Z,25.27
2022-08-05T01:58:12.358Z,25.27
2022-08-05T02:00:21.203Z,25.25
2022-08-05T02:03:36.253Z,25.20
2022-08-05T02:06:39.489Z,25.20
2022-08-05T02:09:42.160Z,25.18
2022-08-05T02:13:24.129Z,25.16
2022-08-05T02:16:34.734Z,25.21
2022-08-05T02:19:47.089Z,25.12
2022-08-05T02:23:08.859Z,25.09
2022-08-05T02:26:13.448Z,25.09
2022-08-05T02:29:21.688Z,25.03
2022-08-05T02:32:31.607Z,24.99
2022-08-05T02:35:37.739Z,24.98
2022-08-05T02:38:42.954Z,24.98
2022-08-05T02:42:00.519Z,25.01
2022-08-05T02:45:04.991Z,24.92
2022-08-05T02:48:12.402Z,24.92
2022-08-05T02:51:15.990Z,24.86
2022-08-05T02:54:35.667Z,24.84
2022-08-05T02:58:10.465Z,24.83
2022-08-05T03:01:03.389Z,24.75
2022-08-05T03:04:14.161Z,24.71
2022-08-05T03:07:40.578Z,24.77
2022-08-05T03:10:44.786Z,24.66
2022-08-05T03:14:08.131Z,24.65
2022-08-05T03:17:10.816Z,24.60
2022-08-05T03:20:13.839Z,24.58
2022-08-05T03:23:16.700Z,24.58
2022-08-05T03:26:31.700Z,24.63
2022-08-05T03:29:45.424Z,24.53
2022-08-05T03:32:58.556Z,24.49
2022-08-05T03:36:01.374Z,24.45
2022-08-05T03:39:13.183Z,24.51
2022-08-05T03:42:22.906Z,24.48
2022-08-05T03:45:29.734Z,24.48
2022-08-05T03:48:52.370Z,24.48
2022-08-05T03:52:48.332Z,24.35
2022-08-05T03:56:06.228Z,24.48
2022-08-05T03:58:59.886Z,24.36
2022-08-05T04:02:02.630Z,24.26
2022-08-05T04:05:09.619Z,24.28
2022-08-05T04:08:29.674Z,24.42
2022-08-05T04:11:50.939Z,24.44
2022-08-05T04:14:57.768Z,24.44
2022-08-05T04:18:09.451Z,24.41
2022-08-05T04:21:12.515Z,24.37
2022-08-05T04:24:35.082Z,24.40
2022-08-05T04:27:43.489Z,24.45
2022-08-05T04:30:47.119Z,24.50
2022-08-05T04:34:19.009Z,24.54
2022-08-05T04:37:13.200Z,24.49
2022-08-05T04:40:19.303Z,24.46
2022-08-05T04:43:22.352Z,24.55
2022-08-05T04:46:27.851Z,24.62
2022-08-05T04:49:39.053Z,24.73
2022-08-05T04:52:53.595Z,24.78
2022-08-05T04:56:32.931Z,24.83
2022-08-05T04:59:22.009Z,24.76
2022-08-05T05:02:36.541Z,24.76
2022-08-05T05:06:40.281Z,24.92
2022-08-05T05:09:07.067Z,25.01
2022-08-05T05:12:09.530Z,25.00
2022-08-05T05:15:17.495Z,25.00
2022-08-05T05:18:36.583Z,25.06
2022-08-05T05:21:39.195Z,24.98
2022-08-05T05:24:56.884Z,24.92
2022-08-05T05:28:01.957Z,25.02
2022-08-05T05:31:05.788Z,25.00
2022-08-05T05:34:11.523Z,25.10
2022-08-05T05:37:15.115Z,25.09
2022-08-05T05:40:19.861Z,25.18
2022-08-05T05:43:57.084Z,25.20
2022-08-05T05:46:45.621Z,25.39
2022-08-05T05:49:56.536Z,25.50
2022-08-05T05:52:59.730Z,25.58
2022-08-05T05:56:03.205Z,25.67
2022-08-05T05:59:07.607Z,25.64
2022-08-05T06:02:10.590Z,25.73
2022-08-05T06:05:16.687Z,25.96
2022-08-05T06:08:31.575Z,26.01
2022-08-05T06:11:34.951Z,26.11
2022-08-05T06:14:44.719Z,26.31
2022-08-05T06:17:52.890Z,26.27
2022-08-05T06:20:56.145Z,26.48
2022-08-05T06:23:59.473Z,26.57
2022-08-05T06:27:04.334Z,26.72
2022-08-05T06:30:19.834Z,26.92
2022-08-05T06:33:33.383Z,27.11
2022-08-05T06:36:57.381Z,27.37
2022-08-05T06:40:01.023Z,27.61
2022-08-05T06:43:05.700Z,27.83
2022-08-05T06:46:30.045Z,28.08
2022-08-05T06:49:59.909Z,28.26
2022-08-05T06:52:58.443Z,28.54
2022-08-05T06:56:03.477Z,28.89
2022-08-05T06:59:09.632Z,29.05
2022-08-05T07:02:14.948Z,29.28
2022-08-05T07:05:18.953Z,29.53
2022-08-05T07:08:22.744Z,29.75
2022-08-05T07:11:31.136Z,29.85
2022-08-05T07:14:53.983Z,30.16
2022-08-05T07:18:08.917Z,30.45
2022-08-05T07:21:12.228Z,30.74
2022-08-05T07:24:15.105Z,30.95
2022-08-05T07:27:17.620Z,31.24
2022-08-05T07:30:27.256Z,31.44
2022-08-05T07:33:35.197Z,31.71
2022-08-05T07:36:40.295Z,31.94
2022-08-05T07:40:25.925Z,32.27
2022-08-05T07:43:14.772Z,32.59
2022-08-05T07:46:26.081Z,32.77
2022-08-05T07:49:28.927Z,32.87
2022-08-05T07:52:31.621Z,33.12
2022-08-05T07:56:05.886Z,33.39
2022-08-05T07:58:59.741Z,33.71
2022-08-05T08:02:03.107Z,33.96
2022-08-05T08:05:09.057Z,34.28
2022-08-05T08:08:15.188Z,34.55
2022-08-05T08:11:18.166Z,34.74
2022-08-05T08:14:30.326Z,34.75
2022-08-05T08:17:32.913Z,34.59
2022-08-05T08:20:59.819Z,34.65
2022-08-05T08:24:01.569Z,34.81
2022-08-05T08:27:08.179Z,35.20
2022-08-05T08:30:30.027Z,35.62
2022-08-05T08:33:37.987Z,35.85
2022-08-05T08:36:49.133Z,36.14
2022-08-05T08:39:55.142Z,36.34
2022-08-05T08:42:58.419Z,36.26
2022-08-05T08:46:22.063Z,36.25
2022-08-05T08:50:06.103Z,36.97
2022-08-05T08:52:53.306Z,36.82
2022-08-05T08:56:05.297Z,36.93
2022-08-05T08:59:14.688Z,37.28
2022-08-05T09:02:19.546Z,37.25
2022-08-05T09:05:38.664Z,37.49
2022-08-05T09:08:45.268Z,37.52
2022-08-05T09:11:51.980Z,37.58
2022-08-05T09:15:05.981Z,37.83
2022-08-05T09:18:13.400Z,38.11
2022-08-05T09:22:13.496Z,38.75
2022-08-05T09:24:38.725Z,39.18
2022-08-05T09:28:04.536Z,39.98
2022-08-05T09:31:43.269Z,40.53
2022-08-05T09:34:51.780Z,40.27
2022-08-05T09:38:12.655Z,40.29
2022-08-05T09:41:17.666Z,39.93
2022-08-05T09:44:41.307Z,40.22
2022-08-05T09:47:55.264Z,40.98
2022-08-05T09:51:02.334Z,41.71
2022-08-05T09:54:08.553Z,42.51
2022-08-05T09:57:28.135Z,42.72
2022-08-05T10:00:36.413Z,42.44
2022-08-05T10:03:58.804Z,42.11
2022-08-05T10:07:14.102Z,42.23
2022-08-05T10:10:28.242Z,42.56
2022-08-05T10:13:45.535Z,42.99
2022-08-05T10:16:52.948Z,43.54
2022-08-05T10:20:03.920Z,43.74
2022-08-05T10:23:59.019Z,43.18
2022-08-05T10:27:00.620Z,43.29
2022-08-05T10:30:41.581Z,43.81
2022-08-05T10:33:29.750Z,43.64
2022-08-05T10:36:37.591Z,43.78
2022-08-05T10:40:03.683Z,43.76
2022-08-05T10:43:30.911Z,44.39
2022-08-05T10:46:45.508Z,44.27
2022-08-05T10:50:33.238Z,43.21
2022-08-05T10:53:38.398Z,42.87
2022-08-05T10:56:45.353Z,42.18
2022-08-05T11:00:04.121Z,42.20
2022-08-05T11:03:25.532Z,42.03
2022-08-05T11:06:30.770Z,42.10
2022-08-05T11:09:45.160Z,42.57
2022-08-05T11:12:50.890Z,43.29
2022-08-05T11:16:18.090Z,43.63
2022-08-05T11:20:10.449Z,43.39
2022-08-05T11:22:53.876Z,43.43
2022-08-05T11:26:06.253Z,42.60
2022-08-05T11:29:31.552Z,42.42
2022-08-05T11:32:35.124Z,41.98
2022-08-05T11:36:07.771Z,42.56
2022-08-05T11:39:12.156Z,43.16
2022-08-05T11:42:18.477Z,43.79
2022-08-05T11:46:14.745Z,43.67
2022-08-05T11:48:44.559Z,43.41
2022-08-05T11:51:51.720Z,44.00
2022-08-05T11:54:56.512Z,44.07
2022-08-05T11:58:10.796Z,44.09
2022-08-05T12:01:19.264Z,44.21
2022-08-05T12:04:22.511Z,44.43
2022-08-05T12:08:08.073Z,44.30
2022-08-05T12:10:58.810Z,43.64
2022-08-05T12:14:06.071Z,42.56
2022-08-05T12:18:02.879Z,41.94
2022-08-05T12:20:38.912Z,42.19
2022-08-05T12:23:51.882Z,41.88
2022-08-05T12:26:54.364Z,42.13
2022-08-05T12:30:07.827Z,42.54
2022-08-05T12:33:27.573Z,42.80
2022-08-05T12:36:35.155Z,42.61
2022-08-05T12:39:38.878Z,42.96
2022-08-05T12:42:41.542Z,43.30
2022-08-05T12:46:12.542Z,43.18
2022-08-05T12:49:15.918Z,42.53
2022-08-05T12:52:25.248Z,42.35
2022-08-05T12:55:32.524Z,42.29
2022-08-05T12:58:48.635Z,42.36
2022-08-05T13:02:07.474Z,42.44
2022-08-05T13:05:14.497Z,42.28
2022-08-05T13:08:18.209Z,41.51
2022-08-05T13:11:25.308Z,41.36
2022-08-05T13:14:47.945Z,41.38
2022-08-05T13:18:08.286Z,41.79
2022-08-05T13:21:10.755Z,41.86
2022-08-05T13:24:15.197Z,41.98
2022-08-05T13:27:39.603Z,41.66
2022-08-05T13:30:42.512Z,41.47
2022-08-05T13:34:21.107Z,41.00
2022-08-05T13:37:08.090Z,40.67
2022-08-05T13:40:15.078Z,40.22
2022-08-05T13:43:21.817Z,40.26
2022-08-05T13:46:50.714Z,40.14
2022-08-05T13:49:48.710Z,39.96
2022-08-05T13:52:51.389Z,39.56
2022-08-05T13:56:00.251Z,39.36
2022-08-05T13:59:06.122Z,39.27
2022-08-05T14:02:26.518Z,39.43
2022-08-05T14:06:04.829Z,39.58
2022-08-05T14:08:54.733Z,39.65
2022-08-05T14:12:04.037Z,39.73
2022-08-05T14:16:07.546Z,39.55
2022-08-05T14:18:29.954Z,39.42
2022-08-05T14:22:10.025Z,39.23
2022-08-05T14:24:54.968Z,39.01
2022-08-05T14:27:58.425Z,38.92
2022-08-05T14:31:01.534Z,38.80
2022-08-05T14:34:04.212Z,38.70
2022-08-05T14:37:14.483Z,38.53
2022-08-05T14:40:17.206Z,38.34
2022-08-05T14:43:19.750Z,38.13
2022-08-05T14:46:22.981Z,38.00
2022-08-05T14:49:56.177Z,37.93
2022-08-05T14:52:58.762Z,37.83
2022-08-05T14:56:01.844Z,37.78
2022-08-05T14:59:04.244Z,37.69
2022-08-05T15:02:15.753Z,37.52
2022-08-05T15:05:18.684Z,37.42
2022-08-05T15:08:58.601Z,37.06
2022-08-05T15:11:51.844Z,36.98
2022-08-05T15:14:56.160Z,36.88
2022-08-05T15:17:58.817Z,36.76
2022-08-05T15:21:07.400Z,36.65
2022-08-05T15:24:10.568Z,36.50
2022-08-05T15:27:13.511Z,36.49
2022-08-05T15:30:16.648Z,36.37
2022-08-05T15:34:05.213Z,36.27
2022-08-05T15:36:41.731Z,36.15
2022-08-05T15:41:01.900Z,36.08
2022-08-05T15:43:11.176Z,36.03
2022-08-05T15:46:19.513Z,35.94
2022-08-05T15:49:41.953Z,35.79
2022-08-05T15:52:54.174Z,35.71
2022-08-05T15:56:02.884Z,35.56
2022-08-05T15:59:07.565Z,35.48
2022-08-05T16:02:14.801Z,35.41
2022-08-05T16:05:22.937Z,35.36
2022-08-05T16:08:31.322Z,35.29
2022-08-05T16:11:39.993Z,35.20
2022-08-05T16:14:45.999Z,35.09
2022-08-05T16:17:57.448Z,35.05
2022-08-05T16:21:04.272Z,35.01
2022-08-05T16:24:07.698Z,35.01
2022-08-05T16:27:32.325Z,34.96
2022-08-05T16:30:50.365Z,34.93
2022-08-05T16:33:53.646Z,34.82
2022-08-05T16:36:56.361Z,34.75
2022-08-05T16:40:05.880Z,34.69
2022-08-05T16:43:09.340Z,34.89
2022-08-05T16:46:12.829Z,34.74
2022-08-05T16:49:26.702Z,34.60
2022-08-05T16:52:33.621Z,34.47
2022-08-05T16:55:46.363Z,34.45
2022-08-05T16:58:49.893Z,34.31
2022-08-05T17:01:53.937Z,34.25
2022-08-05T17:04:58.434Z,34.25
2022-08-05T17:08:00.916Z,34.18
2022-08-05T17:11:03.910Z,34.12
2022-08-05T17:14:07.157Z,34.01
2022-08-05T17:17:15.589Z,34.03
2022-08-05T17:20:18.106Z,33.90
2022-08-05T17:24:05.053Z,33.85
2022-08-05T17:26:43.656Z,33.85
2022-08-05T17:29:48.960Z,33.73
2022-08-05T17:32:55.301Z,33.78
2022-08-05T17:36:07.632Z,33.64
2022-08-05T17:39:23.720Z,33.54
2022-08-05T17:42:32.161Z,33.57
2022-08-05T17:45:38.511Z,33.50
2022-08-05T17:48:43.192Z,33.45
2022-08-05T17:51:47.570Z,33.40
2022-08-05T17:54:52.672Z,33.32
2022-08-05T17:57:57.489Z,33.23
2022-08-05T18:00:59.940Z,33.10
2022-08-05T18:04:04.708Z,33.05
2022-08-05T18:07:12.393Z,32.98
2022-08-05T18:10:21.115Z,32.90
2022-08-05T18:13:25.776Z,32.82
2022-08-05T18:16:28.308Z,32.69
2022-08-05T18:19:30.675Z,32.59
2022-08-05T18:22:36.249Z,32.53
2022-08-05T18:25:49.208Z,32.43
2022-08-05T18:29:01.424Z,32.39
2022-08-05T18:32:04.005Z,32.24
2022-08-05T18:35:06.732Z,32.19
2022-08-05T18:38:16.464Z,32.09
2022-08-05T18:41:55.276Z,31.94
2022-08-05T18:44:49.191Z,31.87
2022-08-05T18:47:58.275Z,31.80
2022-08-05T18:52:04.715Z,31.71
2022-08-05T18:54:45.827Z,31.61
2022-08-05T18:57:52.555Z,31.46
2022-08-05T19:00:56.675Z,31.37
2022-08-05T19:03:59.139Z,31.26
2022-08-05T19:07:01.886Z,31.14
2022-08-05T19:10:11.093Z,31.06
2022-08-05T19:13:15.832Z,31.00
2022-08-05T19:16:24.928Z,30.87
2022-08-05T19:19:30.960Z,30.82
2022-08-05T19:22:33.456Z,30.73
2022-08-05T19:25:39.214Z,30.67
2022-08-05T19:28:46.187Z,30.61
2022-08-05T19:31:51.211Z,30.51
2022-08-05T19:34:54.555Z,30.46
2022-08-05T19:38:06.339Z,30.39
2022-08-05T19:41:10.722Z,30.32
2022-08-05T19:44:14.102Z,30.24
2022-08-05T19:47:16.729Z,30.21
2022-08-05T19:50:20.108Z,30.15
2022-08-05T19:54:04.087Z,30.02
2022-08-05T19:56:45.149Z,29.96
2022-08-05T20:00:01.078Z,29.93
2022-08-05T20:03:13.563Z,29.89
2022-08-05T20:06:28.689Z,29.83
2022-08-05T20:09:53.551Z,29.79
2022-08-05T20:12:55.255Z,29.73
2022-08-05T20:15:57.907Z,29.64
2022-08-05T20:19:00.756Z,29.61
2022-08-05T20:22:03.614Z,29.56
2022-08-05T20:25:08.145Z,29.49
2022-08-05T20:28:13.691Z,29.41
2022-08-05T20:31:18.090Z,29.38
2022-08-05T20:34:24.972Z,29.31
2022-08-05T20:38:06.292Z,29.32
2022-08-05T20:40:50.442Z,29.30
2022-08-05T20:43:59.079Z,29.19
2022-08-05T20:47:07.405Z,29.22
2022-08-05T20:50:11.374Z,29.20
2022-08-05T20:53:16.345Z,29.16
2022-08-05T20:56:42.107Z,29.11
2022-08-05T21:00:10.531Z,29.07
2022-08-05T21:03:08.025Z,29.04
2022-08-05T21:06:27.803Z,29.00
2022-08-05T21:09:31.551Z,28.93
2022-08-05T21:12:39.845Z,28.90
2022-08-05T21:16:01.191Z,28.80
2022-08-05T21:19:03.866Z,28.82
2022-08-05T21:22:06.650Z,28.77
2022-08-05T21:25:12.344Z,28.75
2022-08-05T21:28:18.618Z,28.74
2022-08-05T21:31:25.990Z,28.71
2022-08-05T21:34:43.637Z,28.64
2022-08-05T21:37:58.365Z,28.61
2022-08-05T21:41:01.095Z,28.56
2022-08-05T21:44:06.369Z,28.55
2022-08-05T21:47:17.329Z,28.49
2022-08-05T21:50:31.348Z,28.44
2022-08-05T21:53:34.222Z,28.39
2022-08-05T21:56:44.695Z,28.32
2022-08-05T22:00:04.812Z,28.30
2022-08-05T22:03:15.273Z,28.23
2022-08-05T22:06:22.335Z,28.17
2022-08-05T22:09:25.620Z,28.14
2022-08-05T22:12:50.692Z,28.12
2022-08-05T22:16:02.691Z,28.08
2022-08-05T22:19:57.350Z,28.04
2022-08-05T22:22:55.158Z,28.04
2022-08-05T22:26:16.515Z,27.96
2022-08-05T22:29:26.324Z,27.90
2022-08-05T22:32:29.698Z,27.86
2022-08-05T22:35:48.923Z,27.81
2022-08-05T22:38:53.829Z,27.75
2022-08-05T22:42:11.386Z,27.72
2022-08-05T22:45:15.638Z,27.72
2022-08-05T22:48:22.192Z,27.68
2022-08-05T22:52:05.350Z,27.63
2022-08-05T22:54:52.251Z,27.59
2022-08-05T22:57:56.188Z,27.54
2022-08-05T23:01:00.613Z,27.49
2022-08-05T23:04:03.682Z,27.44
2022-08-05T23:07:07.712Z,27.40
2022-08-05T23:10:10.826Z,27.38
2022-08-05T23:13:13.049Z,27.30
2022-08-05T23:16:15.812Z,27.26
2022-08-05T23:19:38.411Z,27.20
2022-08-05T23:22:47.655Z,27.15
2022-08-05T23:25:55.152Z,27.16
2022-08-05T23:28:58.839Z,27.14
2022-08-05T23:32:01.052Z,27.11
2022-08-05T23:35:03.841Z,27.08
2022-08-05T23:38:06.508Z,27.04
2022-08-05T23:41:14.909Z,27.02
2022-08-05T23:44:17.290Z,26.92
2022-08-05T23:47:22.526Z,26.89
2022-08-05T23:50:27.452Z,26.85
2022-08-05T23:53:46.569Z,26.85
2022-08-05T23:56:49.356Z,26.83
